Time;durP1;ratioP1;P1;durP2;ratioP2;P2;SDS_P1;SDS_P2;PMS_P1;PMS_P2;Temp;Humidity;BMP_temperature;BMP_pressure;BME280_temperature;BME280_humidity;BME280_pressure;Samples;Min_cycle;Max_cycle;Signal;HPM_P1;HPM_P2
2022/10/23 00:00:35;;;;;;;16.83;8.43;;;;;;;11.74;100.00;101291.72;5106354;28;20037;-60
2022/10/23 00:03:00;;;;;;;16.65;8.90;;;;;;;11.68;100.00;101294.03;5110945;28;20032;-59
2022/10/23 00:05:27;;;;;;;16.88;8.70;;;;;;;11.68;100.00;101288.72;5111915;28;20069;-59
2022/10/23 00:07:57;;;;;;;12.77;7.90;;;;;;;11.68;100.00;101283.41;5110411;28;20030;-60
2022/10/23 00:10:25;;;;;;;16.70;8.35;;;;;;;11.68;100.00;101278.09;5106685;28;20036;-61
2022/10/23 00:12:51;;;;;;;16.38;8.52;;;;;;;11.70;100.00;101286.72;5109357;28;20165;-59
2022/10/23 00:15:18;;;;;;;17.38;8.40;;;;;;;11.66;100.00;101279.22;5110576;28;20063;-59
2022/10/23 00:17:44;;;;;;;14.75;7.82;;;;;;;11.71;100.00;101277.75;5111598;28;20050;-59
2022/10/23 00:20:11;;;;;;;15.95;8.18;;;;;;;11.71;100.00;101283.06;5106189;28;20024;-59
2022/10/23 00:22:37;;;;;;;17.50;8.85;;;;;;;11.69;100.00;101279.75;5112126;28;20031;-60
2022/10/23 00:25:04;;;;;;;18.80;9.10;;;;;;;11.61;100.00;101281.53;5111711;28;20031;-59
2022/10/23 00:27:30;;;;;;;16.83;8.38;;;;;;;11.69;100.00;101289.53;5105724;28;20466;-58
2022/10/23 00:29:55;;;;;;;14.57;8.25;;;;;;;11.66;100.00;101285.38;5106760;28;20035;-58
2022/10/23 00:32:21;;;;;;;19.58;9.10;;;;;;;11.63;100.00;101291.00;5108755;28;20065;-59
2022/10/23 00:34:46;;;;;;;20.38;8.95;;;;;;;11.65;100.00;101288.19;5109820;28;20035;-60
2022/10/23 00:37:11;;;;;;;20.30;9.27;;;;;;;11.66;100.00;101285.38;5110396;28;20036;-59
2022/10/23 00:39:36;;;;;;;22.63;8.75;;;;;;;11.65;100.00;101283.69;5111302;28;20036;-58
2022/10/23 00:42:02;;;;;;;16.77;8.57;;;;;;;11.62;100.00;101278.72;5107751;28;20032;-58
2022/10/23 00:44:27;;;;;;;15.60;8.20;;;;;;;11.67;100.00;101281.75;5111484;28;20039;-59
2022/10/23 00:46:52;;;;;;;21.48;8.85;;;;;;;11.63;100.00;101275.06;5110610;28;20023;-59
2022/10/23 00:49:19;;;;;;;17.80;8.30;;;;;;;11.59;100.00;101265.72;5104754;28;20024;-59
2022/10/23 00:51:48;;;;;;;19.75;8.75;;;;;;;11.61;100.00;101276.22;5105529;28;20378;-59
2022/10/23 00:54:17;;;;;;;17.83;8.73;;;;;;;11.53;100.00;101269.03;5110697;28;20028;-59
2022/10/23 00:56:43;;;;;;;16.23;9.00;;;;;;;11.56;100.00;101282.81;5110373;28;20031;-58
2022/10/23 00:59:09;;;;;;;16.00;8.70;;;;;;;11.56;100.00;101274.84;5108338;28;20020;-59
2022/10/23 01:01:34;;;;;;;16.65;8.77;;;;;;;11.58;100.00;101269.38;5106765;28;20471;-59
2022/10/23 01:04:01;;;;;;;18.63;9.15;;;;;;;11.58;100.00;101274.69;5113877;27;20024;-59
2022/10/23 01:06:36;;;;;;;18.73;9.18;;;;;;;11.54;100.00;101260.06;5115811;28;20031;-59
2022/10/23 01:09:14;;;;;;;18.42;8.90;;;;;;;11.53;100.00;101263.72;5114514;28;20027;-59
2022/10/23 01:12:00;;;;;;;18.95;9.30;;;;;;;11.56;100.00;101269.53;5113884;28;20054;-59
2022/10/23 01:14:32;;;;;;;18.25;8.35;;;;;;;11.51;100.00;101271.00;5107499;28;20501;-60
2022/10/23 01:17:01;;;;;;;16.45;8.60;;;;;;;11.52;100.00;101262.06;5115946;28;20026;-59
2022/10/23 01:20:03;;;;;;;20.55;9.15;;;;;;;11.55;100.00;101257.25;5114539;28;20032;-60
2022/10/23 01:22:47;;;;;;;15.77;8.68;;;;;;;11.50;100.00;101261.38;5082207;28;20047;-60
2022/10/23 01:25:36;;;;;;;19.15;8.70;;;;;;;11.52;100.00;101262.06;5114700;28;20055;-59
2022/10/23 01:28:08;;;;;;;14.77;8.43;;;;;;;11.51;100.00;101257.72;5114261;28;20122;-59
2022/10/23 01:30:36;;;;;;;18.33;8.18;;;;;;;11.48;100.00;101250.06;5111884;28;20034;-59
2022/10/23 01:33:08;;;;;;;16.77;9.07;;;;;;;11.47;100.00;101248.41;5114292;28;20505;-59
2022/10/23 01:35:59;;;;;;;13.77;8.18;;;;;;;11.44;100.00;101247.75;5113162;28;20071;-59
2022/10/23 01:38:29;;;;;;;16.08;8.43;;;;;;;11.48;100.00;101244.75;5112116;27;20059;-59
2022/10/23 01:41:06;;;;;;;16.35;8.23;;;;;;;11.46;100.00;101242.28;5107596;28;20114;-59
2022/10/23 01:43:39;;;;;;;21.05;8.02;;;;;;;11.46;100.00;101233.47;5115027;28;20034;-59
2022/10/23 01:46:09;;;;;;;17.42;7.85;;;;;;;11.45;100.00;101222.00;5112402;28;20416;-59
2022/10/23 01:48:36;;;;;;;19.77;7.93;;;;;;;11.46;100.00;101225.50;5114523;28;20058;-59
2022/10/23 01:51:06;;;;;;;15.90;8.13;;;;;;;11.41;100.00;101224.13;5108777;28;20051;-57
2022/10/23 01:53:37;;;;;;;15.35;7.95;;;;;;;11.36;100.00;101220.31;5113717;28;20520;-59
2022/10/23 01:56:10;;;;;;;16.25;7.90;;;;;;;11.36;100.00;101210.53;5111924;27;20053;-60
2022/10/23 01:58:37;;;;;;;20.35;8.00;;;;;;;11.39;100.00;101218.16;5112268;28;20042;-59
2022/10/23 02:01:05;;;;;;;17.10;8.05;;;;;;;11.33;100.00;101213.47;5107151;28;20036;-60
2022/10/23 02:03:34;;;;;;;13.40;7.82;;;;;;;11.38;100.00;101221.81;5111923;28;20028;-58
2022/10/23 02:05:59;;;;;;;19.10;8.02;;;;;;;11.35;100.00;101229.25;5111662;28;20031;-59
2022/10/23 02:08:25;;;;;;;16.38;7.78;;;;;;;11.35;100.00;101219.47;5110083;28;20092;-58
2022/10/23 02:11:06;;;;;;;15.75;8.00;;;;;;;11.33;100.00;101221.44;5108865;28;20111;-59
2022/10/23 02:13:50;;;;;;;16.83;7.97;;;;;;;11.38;100.00;101223.63;5110945;28;20103;-60
2022/10/23 02:16:37;;;;;;;17.27;7.45;;;;;;;11.35;100.00;101223.97;5110129;28;20053;-59
2022/10/23 02:19:20;;;;;;;15.90;7.95;;;;;;;11.36;100.00;101221.16;5114010;28;20521;-59
2022/10/23 02:21:59;;;;;;;16.80;7.80;;;;;;;11.32;100.00;101214.47;5110482;28;20024;-60
2022/10/23 02:24:33;;;;;;;16.15;7.85;;;;;;;11.29;100.00;101214.78;5111138;28;20024;-59
2022/10/23 02:27:03;;;;;;;19.25;8.13;;;;;;;11.28;100.00;101218.44;5113524;28;20031;-59
2022/10/23 02:29:37;;;;;;;13.00;7.85;;;;;;;11.27;100.00;101207.00;5109639;28;20119;-59
2022/10/23 02:32:05;;;;;;;14.55;7.90;;;;;;;11.22;100.00;101198.66;5107328;28;20081;-60
2022/10/23 02:34:30;;;;;;;15.77;8.45;;;;;;;11.22;100.00;101197.81;5110412;28;20036;-58
2022/10/23 02:36:55;;;;;;;20.08;8.43;;;;;;;11.25;100.00;101198.34;5103157;28;20031;-59
2022/10/23 02:39:25;;;;;;;22.40;8.23;;;;;;;11.27;100.00;101192.88;5111773;28;20075;-59
2022/10/23 02:42:13;;;;;;;15.50;8.25;;;;;;;11.29;100.00;101182.91;5107966;28;20111;-59
2022/10/23 02:44:47;;;;;;;21.98;8.23;;;;;;;11.26;100.00;101172.63;5109200;28;20486;-58
2022/10/23 02:47:29;;;;;;;16.02;7.72;;;;;;;11.28;100.00;101154.72;5112661;28;20066;-62
2022/10/23 02:50:20;;;;;;;20.85;9.13;;;;;;;11.30;100.00;101152.75;5110472;28;20028;-60
2022/10/23 02:53:04;;;;;;;19.58;8.50;;;;;;;11.27;100.00;101137.97;5109787;28;20055;-60
2022/10/23 02:55:47;;;;;;;16.30;8.88;;;;;;;11.33;100.00;101140.94;5111812;28;20403;-59
2022/10/23 02:58:40;;;;;;;16.55;8.82;;;;;;;11.35;100.00;101139.81;5107252;28;20040;-59
2022/10/23 03:01:10;;;;;;;17.20;8.10;;;;;;;11.31;100.00;101127.88;5107228;28;20024;-60
2022/10/23 03:03:41;;;;;;;16.30;8.70;;;;;;;11.30;100.00;101131.50;5110392;28;20069;-58
2022/10/23 03:06:06;;;;;;;16.92;8.65;;;;;;;11.32;100.00;101124.22;5103625;28;20032;-59
2022/10/23 03:08:43;;;;;;;19.00;8.85;;;;;;;11.36;100.00;101119.41;5110864;28;20034;-60
2022/10/23 03:11:09;;;;;;;18.33;8.82;;;;;;;11.33;100.00;101125.88;5107316;28;20038;-59
2022/10/23 03:13:34;;;;;;;16.38;8.52;;;;;;;11.37;100.00;101116.59;5111874;28;20020;-59
2022/10/23 03:15:59;;;;;;;19.38;8.95;;;;;;;11.37;100.00;101111.28;5109382;28;20033;-59
2022/10/23 03:18:24;;;;;;;15.13;8.18;;;;;;;11.39;100.00;101111.94;5112383;28;20032;-59
2022/10/23 03:20:50;;;;;;;22.35;8.80;;;;;;;11.38;100.00;101106.78;5107542;28;20031;-59
2022/10/23 03:23:15;;;;;;;17.65;8.75;;;;;;;11.39;100.00;101104.00;5111911;28;20108;-60
2022/10/23 03:25:40;;;;;;;15.10;8.18;;;;;;;11.39;100.00;101103.16;5111661;28;20477;-59
2022/10/23 03:28:06;;;;;;;17.40;8.57;;;;;;;11.39;100.00;101109.28;5110322;28;20096;-59
2022/10/23 03:30:31;;;;;;;18.88;8.52;;;;;;;11.39;100.00;101101.34;5110268;28;20178;-60
2022/10/23 03:32:56;;;;;;;18.10;8.50;;;;;;;11.37;100.00;101100.66;5109798;28;20031;-59
2022/10/23 03:35:21;;;;;;;17.17;8.73;;;;;;;11.40;100.00;101099.53;5110779;28;20028;-59
2022/10/23 03:37:47;;;;;;;16.83;8.35;;;;;;;11.41;100.00;101096.69;5106131;28;20035;-59
2022/10/23 03:40:12;;;;;;;17.17;8.80;;;;;;;11.41;100.00;101095.88;5101169;28;20043;-59
2022/10/23 03:42:37;;;;;;;17.83;8.73;;;;;;;11.42;100.00;101089.56;5109934;28;20027;-59
2022/10/23 03:45:03;;;;;;;17.33;8.52;;;;;;;11.43;100.00;101084.09;5110250;28;20031;-59
2022/10/23 03:47:29;;;;;;;17.50;8.70;;;;;;;11.44;100.00;101083.09;5112449;28;20045;-59
2022/10/23 03:49:54;;;;;;;17.75;9.13;;;;;;;11.44;100.00;101080.44;5107490;28;20050;-61
2022/10/23 03:52:20;;;;;;;15.32;8.98;;;;;;;11.48;100.00;101085.41;5110449;28;20067;-58
2022/10/23 03:54:45;;;;;;;19.77;9.15;;;;;;;11.46;100.00;101079.44;5111837;28;20030;-58
2022/10/23 03:57:10;;;;;;;19.50;9.10;;;;;;;11.46;100.00;101077.63;5112720;28;20024;-59
2022/10/23 03:59:36;;;;;;;15.73;8.82;;;;;;;11.47;100.00;101073.13;5100814;27;20028;-60
2022/10/23 04:02:01;;;;;;;18.85;8.93;;;;;;;11.48;100.00;101069.47;5104443;28;20031;-59
2022/10/23 04:04:26;;;;;;;17.15;9.55;;;;;;;11.47;100.00;101062.50;5107825;28;20051;-59
2022/10/23 04:06:52;;;;;;;18.00;9.60;;;;;;;11.47;100.00;101057.19;5107505;28;20035;-59
2022/10/23 04:09:17;;;;;;;15.90;8.75;;;;;;;11.47;100.00;101054.53;5107943;28;20089;-59
2022/10/23 04:11:42;;;;;;;19.48;9.20;;;;;;;11.48;100.00;101050.88;5098681;28;20088;-58
2022/10/23 04:14:12;;;;;;;18.88;8.98;;;;;;;11.47;100.00;101046.59;5110191;28;20370;-58
2022/10/23 04:16:38;;;;;;;17.63;9.45;;;;;;;11.49;100.00;101044.63;5111076;28;20031;-59
2022/10/23 04:19:03;;;;;;;16.80;8.77;;;;;;;11.48;100.00;101048.25;5109989;28;20068;-59
2022/10/23 04:21:28;;;;;;;20.65;9.65;;;;;;;11.49;100.00;101040.13;5109233;28;20489;-59
2022/10/23 04:23:53;;;;;;;18.52;8.95;;;;;;;11.50;100.00;101051.59;5104959;28;20020;-58
2022/10/23 04:26:19;;;;;;;15.63;8.40;;;;;;;11.50;100.00;101051.59;5110680;28;20028;-58
2022/10/23 04:28:44;;;;;;;16.83;8.82;;;;;;;11.51;100.00;101058.56;5110430;28;20473;-59
2022/10/23 04:31:09;;;;;;;17.95;8.32;;;;;;;11.50;100.00;101051.59;5102166;28;20527;-59
2022/10/23 04:33:35;;;;;;;20.00;8.80;;;;;;;11.50;100.00;101056.91;5110740;28;20035;-60
2022/10/23 04:36:00;;;;;;;16.88;9.30;;;;;;;11.49;100.00;101055.25;5106660;28;20047;-59
2022/10/23 04:38:25;;;;;;;17.10;8.95;;;;;;;11.47;100.00;101058.03;5109595;28;20051;-60
2022/10/23 04:40:51;;;;;;;16.30;8.93;;;;;;;11.48;100.00;101051.75;5103573;28;20048;-59
2022/10/23 04:43:16;;;;;;;17.00;8.90;;;;;;;11.48;100.00;101048.25;5110798;28;20399;-59
2022/10/23 04:45:41;;;;;;;15.00;8.55;;;;;;;11.47;100.00;101038.63;5111313;28;20080;-59
2022/10/23 04:48:06;;;;;;;20.52;8.90;;;;;;;11.46;100.00;101040.47;5112248;28;20019;-59
2022/10/23 04:50:33;;;;;;;15.27;8.40;;;;;;;11.48;100.00;101045.59;5106830;28;20348;-59
2022/10/23 04:52:58;;;;;;;15.43;8.80;;;;;;;11.46;100.00;101035.16;5109134;28;20475;-59
2022/10/23 04:55:24;;;;;;;19.13;9.30;;;;;;;11.47;100.00;101035.97;5107049;28;20027;-59
2022/10/23 04:57:50;;;;;;;17.77;8.73;;;;;;;11.47;100.00;101030.66;5107173;28;20507;-58
2022/10/23 05:00:15;;;;;;;17.45;8.68;;;;;;;11.45;100.00;101028.16;5105855;28;20032;-59
2022/10/23 05:02:40;;;;;;;15.15;8.40;;;;;;;11.46;100.00;101031.66;5105400;28;20028;-59
2022/10/23 05:05:06;;;;;;;19.40;8.10;;;;;;;11.47;100.00;101033.31;5104143;28;20030;-60
2022/10/23 05:07:33;;;;;;;17.13;7.90;;;;;;;11.47;100.00;101026.19;5105484;27;20035;-61
2022/10/23 05:09:58;;;;;;;16.10;7.97;;;;;;;11.46;100.00;101024.53;5101936;28;20031;-59
2022/10/23 05:12:25;;;;;;;14.57;8.40;;;;;;;11.48;100.00;101025.19;5106411;28;20475;-59
2022/10/23 05:14:50;;;;;;;15.55;7.97;;;;;;;11.47;100.00;101026.19;5107053;28;20126;-60
2022/10/23 05:17:21;;;;;;;15.23;8.32;;;;;;;11.44;100.00;101019.38;5103266;28;20031;-59
2022/10/23 05:19:52;;;;;;;12.98;7.70;;;;;;;11.49;100.00;101015.41;5104496;28;20035;-60
2022/10/23 05:22:19;;;;;;;13.23;7.85;;;;;;;11.47;100.00;101009.41;5103821;28;20509;-61
2022/10/23 05:24:45;;;;;;;17.52;8.20;;;;;;;11.50;100.00;101015.22;5105856;28;20023;-59
2022/10/23 05:27:10;;;;;;;16.17;7.60;;;;;;;11.51;100.00;101016.06;5101857;28;20026;-60
2022/10/23 05:29:35;;;;;;;16.02;7.82;;;;;;;11.51;100.00;101008.09;5103244;28;20031;-59
2022/10/23 05:32:04;;;;;;;17.80;7.93;;;;;;;11.49;100.00;101002.94;5100992;28;20120;-59
2022/10/23 05:34:31;;;;;;;16.40;7.60;;;;;;;11.50;100.00;101009.91;5103272;28;20088;-59
2022/10/23 05:36:57;;;;;;;15.68;8.07;;;;;;;11.52;100.00;101007.09;5107388;28;20107;-59
2022/10/23 05:39:22;;;;;;;15.15;7.97;;;;;;;11.53;100.00;101003.44;5103640;28;20123;-60
2022/10/23 05:41:48;;;;;;;15.00;7.85;;;;;;;11.52;100.00;101004.44;5104041;28;20060;-61
2022/10/23 05:44:14;;;;;;;15.73;7.60;;;;;;;11.54;100.00;101002.44;5102970;28;20028;-59
2022/10/23 05:46:41;;;;;;;16.05;7.18;;;;;;;11.53;100.00;101003.44;5106864;28;20197;-60
2022/10/23 05:49:06;;;;;;;17.30;7.50;;;;;;;11.52;100.00;101007.09;5105682;28;20028;-60
2022/10/23 05:51:35;;;;;;;12.77;7.38;;;;;;;11.50;100.00;100988.66;5099430;28;20032;-59
2022/10/23 05:54:01;;;;;;;15.70;7.20;;;;;;;11.52;100.00;100996.47;5102691;28;20046;-59
2022/10/23 05:56:26;;;;;;;13.35;7.43;;;;;;;11.52;100.00;100997.31;5103141;28;20099;-60
2022/10/23 05:58:51;;;;;;;13.25;7.22;;;;;;;11.51;100.00;100992.16;5107130;28;20023;-60
2022/10/23 06:01:17;;;;;;;16.45;7.03;;;;;;;11.51;100.00;100990.34;5101738;28;20438;-60
2022/10/23 06:03:42;;;;;;;16.40;7.03;;;;;;;11.51;100.00;100986.84;5103200;28;20055;-60
2022/10/23 06:06:07;;;;;;;14.77;7.10;;;;;;;11.51;100.00;100984.19;5104846;28;20460;-59
2022/10/23 06:08:34;;;;;;;14.55;6.95;;;;;;;11.53;100.00;100976.88;5106623;28;20566;-60
2022/10/23 06:11:07;;;;;;;11.75;6.70;;;;;;;11.55;100.00;100975.72;5103435;28;20035;-60
2022/10/23 06:13:32;;;;;;;16.40;6.88;;;;;;;11.55;100.00;100980.22;5102358;28;20035;-60
2022/10/23 06:15:58;;;;;;;15.73;7.07;;;;;;;11.56;100.00;100973.91;5104802;28;20092;-58
2022/10/23 06:18:23;;;;;;;12.32;6.72;;;;;;;11.56;100.00;100976.56;5104458;28;20474;-60
2022/10/23 06:20:48;;;;;;;15.68;6.57;;;;;;;11.55;100.00;100977.56;5101514;28;20059;-58
2022/10/23 06:23:13;;;;;;;13.32;6.72;;;;;;;11.56;100.00;100971.25;5105346;28;20387;-59
2022/10/23 06:25:39;;;;;;;11.85;6.65;;;;;;;11.58;100.00;100966.59;5103017;28;20035;-60
2022/10/23 06:28:04;;;;;;;11.40;6.97;;;;;;;11.59;100.00;100968.25;5101073;28;20031;-59
2022/10/23 06:30:29;;;;;;;13.43;7.00;;;;;;;11.60;100.00;100971.75;5095132;28;20031;-62
2022/10/23 06:32:54;;;;;;;15.77;6.85;;;;;;;11.62;100.00;100964.44;5096360;28;20347;-60
2022/10/23 06:35:20;;;;;;;13.85;7.00;;;;;;;11.63;100.00;100955.47;5102422;28;20038;-61
2022/10/23 06:37:45;;;;;;;11.82;6.55;;;;;;;11.64;100.00;100952.66;5102352;28;20122;-60
2022/10/23 06:40:10;;;;;;;13.77;6.60;;;;;;;11.66;100.00;100956.00;5092908;28;20414;-60
2022/10/23 06:42:36;;;;;;;13.00;6.60;;;;;;;11.67;100.00;100952.34;5105178;28;20020;-60
2022/10/23 06:45:01;;;;;;;16.40;6.47;;;;;;;11.67;100.00;100941.72;5102863;28;20027;-60
2022/10/23 06:47:26;;;;;;;15.93;6.82;;;;;;;11.68;100.00;100938.06;5101216;28;20694;-60
2022/10/23 06:49:51;;;;;;;15.20;6.88;;;;;;;11.71;100.00;100932.41;5098149;28;20057;-61
2022/10/23 06:52:17;;;;;;;14.45;6.55;;;;;;;11.74;100.00;100930.41;5105419;28;20123;-60
2022/10/23 06:54:42;;;;;;;12.60;6.13;;;;;;;11.75;100.00;100926.75;5103395;28;20108;-59
2022/10/23 06:57:07;;;;;;;14.80;6.72;;;;;;;11.79;100.00;100933.41;5104948;28;20031;-60
2022/10/23 06:59:32;;;;;;;12.35;6.15;;;;;;;11.80;100.00;100935.88;5099857;28;20109;-60
2022/10/23 07:01:58;;;;;;;15.32;6.60;;;;;;;11.83;100.00;100934.72;5103692;28;20079;-60
2022/10/23 07:04:24;;;;;;;15.05;7.00;;;;;;;11.86;100.00;100929.09;5103258;28;20421;-60
2022/10/23 07:06:49;;;;;;;15.35;7.10;;;;;;;11.87;100.00;100936.06;5104808;28;20084;-61
2022/10/23 07:09:14;;;;;;;13.68;6.25;;;;;;;11.89;100.00;100944.66;5097610;28;20031;-60
2022/10/23 07:11:39;;;;;;;16.75;6.68;;;;;;;11.91;100.00;100937.38;5103578;28;20074;-62
2022/10/23 07:14:05;;;;;;;14.10;6.07;;;;;;;11.93;100.00;100940.69;5101513;28;20403;-60
2022/10/23 07:16:30;;;;;;;9.75;5.95;;;;;;;11.96;100.00;100934.22;5105481;28;20031;-60
2022/10/23 07:18:58;;;;;;;13.43;5.70;;;;;;;12.00;100.00;100929.38;5104998;28;20019;-59
2022/10/23 07:21:33;;;;;;;9.95;5.50;;;;;;;12.00;100.00;100921.41;5100754;28;20035;-60
2022/10/23 07:23:59;;;;;;;12.65;5.25;;;;;;;12.05;100.00;100913.81;5098046;28;20399;-60
2022/10/23 07:26:25;;;;;;;13.13;5.35;;;;;;;12.05;100.00;100911.94;5100898;28;20126;-60
2022/10/23 07:28:53;;;;;;;12.20;5.22;;;;;;;12.09;100.00;100915.13;5104705;28;20027;-60
2022/10/23 07:31:20;;;;;;;10.70;5.50;;;;;;;12.13;100.00;100912.97;5103710;28;20114;-60
2022/10/23 07:33:45;;;;;;;14.85;5.55;;;;;;;12.15;100.00;100910.94;5105551;28;20467;-60
2022/10/23 07:36:10;;;;;;;13.35;5.40;;;;;;;12.18;100.00;100906.13;5098690;28;20123;-60
2022/10/23 07:38:36;;;;;;;11.95;5.10;;;;;;;12.20;100.00;100904.09;5104926;28;20376;-61
2022/10/23 07:41:01;;;;;;;11.88;5.15;;;;;;;12.23;100.00;100917.06;5105267;28;20044;-60
2022/10/23 07:43:27;;;;;;;9.77;5.47;;;;;;;12.27;100.00;100909.59;5105755;28;20145;-60
2022/10/23 07:45:53;;;;;;;11.90;5.22;;;;;;;12.29;100.00;100898.78;5105717;28;20031;-61
2022/10/23 07:48:19;;;;;;;12.07;5.20;;;;;;;12.34;100.00;100899.09;5101598;27;20027;-60
2022/10/23 07:50:45;;;;;;;10.85;5.35;;;;;;;12.36;100.00;100897.09;5100176;28;20081;-60
2022/10/23 07:53:17;;;;;;;12.57;5.50;;;;;;;12.38;100.00;100895.91;5102097;28;20044;-61
2022/10/23 07:55:57;;;;;;;13.02;5.65;;;;;;;12.40;100.00;100901.06;5100053;28;20032;-60
2022/10/23 07:58:24;;;;;;;12.63;5.57;;;;;;;12.44;100.00;100904.22;5100483;28;20027;-61
2022/10/23 08:00:54;;;;;;;14.73;5.60;;;;;;;12.44;100.00;100899.72;5102806;28;20511;-61
2022/10/23 08:03:20;;;;;;;11.30;5.60;;;;;;;12.50;100.00;100898.22;5098870;28;20410;-60
2022/10/23 08:05:45;;;;;;;12.00;5.70;;;;;;;12.55;100.00;100895.03;5103930;28;20047;-60
2022/10/23 08:08:11;;;;;;;12.48;6.20;;;;;;;12.58;100.00;100892.84;5104540;28;20035;-59
2022/10/23 08:10:36;;;;;;;11.63;5.90;;;;;;;12.60;100.00;100892.69;5097937;28;20023;-59
2022/10/23 08:13:01;;;;;;;10.23;5.72;;;;;;;12.63;100.00;100889.69;5101161;28;20495;-59
2022/10/23 08:15:27;;;;;;;12.07;6.15;;;;;;;12.68;100.00;100895.28;5102718;28;20063;-59
2022/10/23 08:17:52;;;;;;;14.88;6.50;;;;;;;12.70;100.00;100893.28;5104549;28;20020;-59
2022/10/23 08:20:17;;;;;;;13.85;6.28;;;;;;;12.74;100.00;100886.59;5099273;28;20349;-59
2022/10/23 08:22:42;;;;;;;12.75;6.13;;;;;;;12.76;100.00;100889.94;5104956;28;20027;-59
2022/10/23 08:25:08;;;;;;;10.63;6.07;;;;;;;12.83;100.00;100886.56;5101898;28;20471;-59
2022/10/23 08:27:33;;;;;;;13.43;6.15;;;;;;;12.86;100.00;100886.22;5099766;28;20036;-60
2022/10/23 08:29:59;;;;;;;15.07;6.28;;;;;;;12.87;100.00;100888.69;5098881;28;20023;-60
2022/10/23 08:32:28;;;;;;;17.50;6.40;;;;;;;12.91;100.00;100878.53;5101459;28;20027;-60
2022/10/23 08:34:53;;;;;;;13.45;6.10;;;;;;;12.95;100.00;100879.84;5099021;28;20059;-60
2022/10/23 08:37:18;;;;;;;12.98;6.30;;;;;;;12.96;100.00;100870.84;5100234;28;20063;-60
2022/10/23 08:39:43;;;;;;;10.88;5.97;;;;;;;12.97;100.00;100867.19;5098731;28;20422;-60
2022/10/23 08:42:22;;;;;;;12.10;5.85;;;;;;;12.98;100.00;100860.03;5103500;28;20076;-63
2022/10/23 08:45:02;;;;;;;15.88;6.53;;;;;;;12.98;100.00;100862.69;5102013;28;20020;-62
2022/10/23 08:47:38;;;;;;;13.75;5.97;;;;;;;12.99;100.00;100862.53;5098977;28;20101;-61
2022/10/23 08:50:30;;;;;;;11.75;6.07;;;;;;;13.01;100.00;100867.66;5096284;28;20398;-61
2022/10/23 08:53:02;;;;;;;15.98;5.70;;;;;;;13.02;100.00;100854.16;5103764;28;20024;-61
2022/10/23 08:55:36;;;;;;;10.65;6.15;;;;;;;13.05;100.00;100859.16;5102961;28;20416;-61
2022/10/23 08:58:25;;;;;;;11.32;6.10;;;;;;;13.07;100.00;100842.97;5100601;28;20028;-61
2022/10/23 09:00:50;;;;;;;11.52;5.95;;;;;;;13.13;100.00;100854.78;5100365;28;20097;-62
2022/10/23 09:03:17;;;;;;;14.98;5.90;;;;;;;13.15;100.00;100852.75;5103510;28;20028;-61
2022/10/23 09:05:55;;;;;;;9.48;5.53;;;;;;;13.19;100.00;100848.72;5104233;28;20027;-62
2022/10/23 09:08:31;;;;;;;11.48;5.53;;;;;;;13.19;100.00;100835.41;5104297;28;20110;-61
2022/10/23 09:11:21;;;;;;;10.95;5.78;;;;;;;13.23;100.00;100831.38;5099523;28;20081;-61
2022/10/23 09:14:18;;;;;;;12.00;5.70;;;;;;;13.25;100.00;100826.72;5102883;28;20152;-62
2022/10/23 09:17:11;;;;;;;15.55;5.55;;;;;;;13.30;100.00;100826.16;5106934;28;20035;-63
2022/10/23 09:19:37;;;;;;;13.07;5.70;;;;;;;13.33;100.00;100823.16;5105333;28;20114;-61
2022/10/23 09:22:04;;;;;;;10.15;5.35;;;;;;;13.37;100.00;100820.97;5110954;28;20107;-61
2022/10/23 09:24:32;;;;;;;10.40;5.47;;;;;;;13.41;100.00;100814.25;5114744;28;20046;-58
2022/10/23 09:26:59;;;;;;;10.57;5.38;;;;;;;13.42;100.00;100813.25;5113291;28;20075;-58
2022/10/23 09:29:34;;;;;;;12.18;5.57;;;;;;;13.44;100.00;100809.38;5112359;28;20052;-59
2022/10/23 09:32:03;;;;;;;15.35;5.90;;;;;;;13.46;100.00;100806.56;5111589;28;20038;-58
2022/10/23 09:34:30;;;;;;;12.88;5.55;;;;;;;13.46;100.00;100806.56;5110489;28;20039;-58
2022/10/23 09:36:59;;;;;;;11.65;5.60;;;;;;;13.50;100.00;100791.88;5102814;28;20046;-58
2022/10/23 09:39:34;;;;;;;10.30;5.10;;;;;;;13.51;100.00;100782.88;5104662;28;20051;-58
2022/10/23 09:42:01;;;;;;;14.30;5.93;;;;;;;13.55;100.00;100778.84;5101065;28;20012;-58
2022/10/23 09:44:32;;;;;;;12.88;5.20;;;;;;;13.55;100.00;100781.53;5114188;28;20610;-58
2022/10/23 09:47:12;;;;;;;9.95;5.15;;;;;;;13.58;100.00;100780.31;5115182;28;20047;-58
2022/10/23 09:49:40;;;;;;;11.23;5.25;;;;;;;13.62;100.00;100786.94;5107989;28;20189;-62
2022/10/23 09:52:11;;;;;;;11.82;5.03;;;;;;;13.67;100.00;100787.22;5112886;28;20077;-61
2022/10/23 09:54:44;;;;;;;9.95;5.00;;;;;;;13.69;100.00;100784.38;5114779;28;20121;-60
2022/10/23 09:57:22;;;;;;;10.25;5.32;;;;;;;13.71;100.00;100777.00;5107273;28;20027;-61
2022/10/23 10:00:17;;;;;;;9.95;5.07;;;;;;;13.74;100.00;100776.66;5102276;28;20036;-59
2022/10/23 10:02:54;;;;;;;10.23;5.20;;;;;;;13.75;100.00;100756.97;5105005;28;20059;-60
2022/10/23 10:05:29;;;;;;;11.80;5.22;;;;;;;13.84;100.00;100760.38;5105117;28;20041;-62
2022/10/23 10:08:33;;;;;;;10.75;5.25;;;;;;;13.88;100.00;100755.50;5109415;28;20411;-62
2022/10/23 10:11:03;;;;;;;11.05;5.15;;;;;;;13.90;100.00;100753.47;5089695;27;20105;-64
2022/10/23 10:13:32;;;;;;;13.25;5.50;;;;;;;13.92;100.00;100743.47;5101317;28;20124;-65
2022/10/23 10:16:05;;;;;;;14.45;5.35;;;;;;;13.96;100.00;100731.41;5111320;28;20024;-61
2022/10/23 10:18:42;;;;;;;12.60;5.10;;;;;;;13.98;100.00;100724.06;5112897;28;20035;-61
2022/10/23 10:21:26;;;;;;;10.73;5.22;;;;;;;14.02;100.00;100725.34;5105593;28;20024;-62
2022/10/23 10:24:04;;;;;;;11.98;5.00;;;;;;;14.04;100.00;100717.97;5107902;28;20031;-63
2022/10/23 10:26:44;;;;;;;10.68;5.15;;;;;;;14.11;100.00;100710.03;5111841;28;20039;-61
2022/10/23 10:29:28;;;;;;;12.60;5.20;;;;;;;14.15;100.00;100718.50;5109382;28;20031;-62
2022/10/23 10:32:04;;;;;;;10.93;5.35;;;;;;;14.21;100.00;100723.09;5099041;28;20072;-58
2022/10/23 10:34:52;;;;;;;13.75;5.32;;;;;;;14.27;100.00;100725.00;5106869;28;20433;-57
2022/10/23 10:37:33;;;;;;;12.98;5.63;;;;;;;14.28;100.00;100723.97;5102270;28;20485;-58
2022/10/23 10:40:24;;;;;;;12.15;5.75;;;;;;;14.37;100.00;100716.69;5105305;28;20039;-58
2022/10/23 10:43:02;;;;;;;13.48;5.55;;;;;;;14.40;100.00;100721.63;5103392;28;20077;-57
2022/10/23 10:45:36;;;;;;;10.50;5.85;;;;;;;14.48;100.00;100710.84;5097403;28;20036;-58
2022/10/23 10:48:26;;;;;;;12.88;5.50;;;;;;;14.58;100.00;100713.19;5113106;28;20031;-58
2022/10/23 10:51:00;;;;;;;12.68;5.57;;;;;;;14.62;100.00;100702.97;5105878;28;20035;-58
2022/10/23 10:53:49;;;;;;;13.98;6.22;;;;;;;14.74;100.00;100689.91;5108159;28;20509;-58
2022/10/23 10:56:17;;;;;;;10.32;5.13;;;;;;;14.77;99.94;100682.38;5108767;27;20023;-58
2022/10/23 10:58:49;;;;;;;9.00;5.25;;;;;;;14.90;99.44;100689.66;5105252;28;20102;-59
2022/10/23 11:01:27;;;;;;;12.02;4.85;;;;;;;15.01;99.51;100682.16;5106283;28;20050;-57
2022/10/23 11:04:03;;;;;;;10.32;5.13;;;;;;;15.03;99.58;100682.75;5108395;28;20085;-58
2022/10/23 11:06:32;;;;;;;11.55;4.80;;;;;;;15.15;98.45;100697.22;5109058;28;20371;-60
2022/10/23 11:09:04;;;;;;;10.77;4.88;;;;;;;15.19;98.56;100692.31;5107813;28;20463;-57
2022/10/23 11:11:34;;;;;;;14.15;4.97;;;;;;;15.22;98.89;100683.09;5106136;28;20035;-58
2022/10/23 11:14:01;;;;;;;10.90;5.00;;;;;;;15.27;98.36;100672.63;5109390;28;20028;-58
2022/10/23 11:16:35;;;;;;;8.02;4.57;;;;;;;15.32;98.45;100678.22;5110166;28;20382;-57
2022/10/23 11:19:18;;;;;;;8.95;4.32;;;;;;;15.34;98.41;100668.16;5109299;28;20038;-58
2022/10/23 11:21:46;;;;;;;7.00;4.45;;;;;;;15.40;97.39;100675.38;5104305;28;20039;-58